Aérodrome :
LOGIN :

S'inscrire | Disclaimer

   EN    FR    IT 

 










Légende :    VFR   VFR Marginal   IFR   IFR Intensif   IFR Très Intensif
Visi : 
Plafond : 
>= 8 km
>= 3000ft
5 à 8 km
1000 à 3000 ft
1500m à 5 km
500 à 1000 ft
800 à 1500m
200 à 500 ft
< 800m
< 200 ft
Symboles :   Orages  Brouillard  Fortes neiges  Fortes précipitations  Vent > 20 kt
SIGMETs :   Divers  Orages  Givrage  Turbulence  Onde Orograph.  Cendres Volcan.






- Altitude de l'aérodrome : 277 ft
- Code IATA : JER


EGJJ - Jersey

DERNIER METAR :
  • 241750Z 24019KT 4500 RA BR FEW000 BKN002 10/10 Q1012

METARs EXPIRÉS :
  • 241720Z 24019KT 5000 -RADZ BR FEW000 BKN003 10/10 Q1012
  • 241650Z 24019KT 2500 -RADZ FEW000 BKN002 10/10 Q1012
  • 241620Z 24021KT 2500 -RADZ BR SCT002 BKN003 10/09 Q1012
  • 241550Z 24022KT 2500 -RADZ BR FEW002 OVC003 10/09 Q1013
  • 241520Z 23019KT 5000 -RA BR FEW002 BKN004 10/09 Q1013

TAF TAF EGJJ
Valide du 24 à 18h jusqu'au 25 à 03h UTC


241702Z 2418/2503 23020G30KT 5000 -RA BKN005
TEMPO 2418/2419 2000 RA BR BKN002
BECMG 2418/2420 27016KT 9999 NSW SCT015
PROB30
TEMPO 2422/2503 6000 SHRA BKN015
ATIS : +44 1534 498 073



MET'MAP, la Météo Aéronautique d'un coup d'oeil ! - Copyright ORBIFLY Décembre 2007 - Disclaimer

ORBIFLY MET'MAP TEAM :

Programmation & Développement : Alexandra Zaïnal
Sur une idée originale de : Baudouin d'Aumeries
Assistance à la programmation : Marc-Olivier Méhu
Soutien technique & logistique : Manuel Goepfert

Contact : metmap@orbifly.com




SOURCES & CREDITS :

   NOAA